グアム の空港の天気 - METARとTAF

グアム国際空港 ( PGUM / GUM ) - グアム ハガニア
飛行場実況気象(Metar)
観測時間01/23 14:54 ChST (01/23 04:54 UTC)
風向・風速東北東 8m/s
視程10km以上
天気現象
少しの雲 雲底高度 640m
少しの雲 雲底高度 850m
気温30℃
湿度70%
気圧1007.4hPa
METARPGUM 230454Z 07016KT 10SM FEW021 FEW028 30/24 A2977 RMK AO2 SLP074 T03000239
過去の天気等 Google飛行場航空写真 Wunderground天気予報

過去48時間のMETAR

飛行場予報(TAF)
発表時間: 1/23 15:24 ChST (1/23 05:24 UTC)
予報対象時間: 23日16時 ChST ~ 24日22時 ChST
風向・風速東 6m/s 瞬間風速 9m/s
視程10km以上
少しの雲 雲底高度 760m
全天の4割程度の雲 雲底高度 1,520m
23日18時 ChST から
風向・風速東 6m/s
視程10km以上
少しの雲 雲底高度 760m
全天の4割程度の雲 雲底高度 1,520m
PGUM 230524Z 2306/2412 08011G18KT P6SM FEW025 SCT050
FM230800 08011KT P6SM FEW025 SCT050